createdAt,value
2019-04-30T00:00:00.390Z,0.00
2019-04-30T00:01:01.226Z,0.00
2019-04-30T00:02:00.358Z,0.00
2019-04-30T00:03:00.347Z,0.00
2019-04-30T00:04:00.347Z,0.00
2019-04-30T00:05:00.324Z,0.00
2019-04-30T00:06:00.315Z,0.00
2019-04-30T00:07:00.305Z,0.00
2019-04-30T00:08:00.296Z,0.00
2019-04-30T00:09:00.280Z,0.00
2019-04-30T00:10:00.268Z,0.00
2019-04-30T00:11:00.257Z,0.00
2019-04-30T00:12:01.396Z,0.00
2019-04-30T00:13:00.244Z,0.00
2019-04-30T00:14:00.227Z,0.00
2019-04-30T00:15:00.215Z,0.00
2019-04-30T00:16:01.623Z,0.00
2019-04-30T00:17:00.203Z,0.00
2019-04-30T00:18:01.865Z,0.00
2019-04-30T00:19:01.002Z,0.00
2019-04-30T00:20:00.164Z,0.00
2019-04-30T00:21:00.150Z,0.00
2019-04-30T00:22:00.642Z,0.00
2019-04-30T00:23:00.126Z,0.00
2019-04-30T00:24:00.812Z,0.00
2019-04-30T00:25:00.106Z,0.00
2019-04-30T00:26:08.686Z,0.00
2019-04-30T00:27:01.081Z,0.00
2019-04-30T00:28:04.299Z,0.00
2019-04-30T00:29:01.062Z,0.00
2019-04-30T00:30:00.296Z,0.00
2019-04-30T00:31:00.037Z,0.00
2019-04-30T00:32:04.515Z,0.00
2019-04-30T00:33:01.019Z,0.00
2019-04-30T00:34:01.330Z,0.00
2019-04-30T00:34:59.996Z,0.00
2019-04-30T00:35:59.983Z,0.00
2019-04-30T00:36:59.974Z,0.00
2019-04-30T00:38:00.314Z,0.00
2019-04-30T00:38:59.952Z,0.00
2019-04-30T00:39:59.948Z,0.00
2019-04-30T00:41:01.855Z,0.00
2019-04-30T00:42:00.916Z,0.00
2019-04-30T00:43:04.131Z,0.00
2019-04-30T00:44:00.907Z,0.00
2019-04-30T00:45:04.102Z,0.00
2019-04-30T00:46:00.873Z,0.00
2019-04-30T00:47:00.575Z,0.00
2019-04-30T00:47:59.856Z,0.00
2019-04-30T00:49:09.371Z,0.00
2019-04-30T00:50:00.827Z,0.00
2019-04-30T00:50:59.818Z,0.00
2019-04-30T00:51:59.813Z,0.00
2019-04-30T00:52:59.810Z,0.00
2019-04-30T00:53:59.785Z,0.00
2019-04-30T00:55:00.394Z,0.00
2019-04-30T00:55:59.763Z,0.00
2019-04-30T00:57:04.563Z,0.00
2019-04-30T00:58:00.743Z,0.00
2019-04-30T00:59:02.681Z,0.00
2019-04-30T01:00:00.718Z,0.00
2019-04-30T01:01:04.116Z,0.00
2019-04-30T01:02:00.697Z,0.00
2019-04-30T01:03:00.833Z,0.00
2019-04-30T01:04:00.674Z,0.00
2019-04-30T01:05:05.348Z,0.00
2019-04-30T01:06:00.653Z,0.00
2019-04-30T01:07:00.229Z,0.00
2019-04-30T01:07:59.633Z,0.00
2019-04-30T01:09:05.411Z,0.00
2019-04-30T01:10:00.610Z,0.00
2019-04-30T01:10:59.933Z,0.00
2019-04-30T01:11:59.588Z,0.00
2019-04-30T01:13:07.339Z,0.00
2019-04-30T01:14:00.567Z,0.00
2019-04-30T01:15:01.696Z,0.00
2019-04-30T01:16:00.544Z,0.00
2019-04-30T01:17:03.479Z,0.00
2019-04-30T01:17:59.522Z,0.00
2019-04-30T01:19:01.144Z,0.00
2019-04-30T01:20:00.499Z,0.00
2019-04-30T01:21:03.023Z,0.00
2019-04-30T01:22:00.487Z,0.00
2019-04-30T01:23:03.024Z,0.00
2019-04-30T01:24:00.455Z,0.00
2019-04-30T01:25:02.275Z,0.00
2019-04-30T01:26:00.438Z,0.00
2019-04-30T01:27:00.761Z,0.00
2019-04-30T01:28:00.412Z,0.00
2019-04-30T01:29:02.058Z,0.00
2019-04-30T01:29:59.390Z,0.00
2019-04-30T01:31:01.899Z,0.00
2019-04-30T01:31:59.371Z,0.00
2019-04-30T01:33:01.086Z,0.00
2019-04-30T01:33:59.348Z,0.00
2019-04-30T01:34:59.338Z,0.00
2019-04-30T01:35:59.731Z,0.00
2019-04-30T01:36:59.320Z,0.00
2019-04-30T01:37:59.657Z,0.00
2019-04-30T01:38:59.359Z,0.00
2019-04-30T01:40:03.093Z,0.00
2019-04-30T01:41:00.270Z,0.00
2019-04-30T01:42:02.797Z,0.00
2019-04-30T01:43:00.251Z,0.00
2019-04-30T01:43:59.245Z,0.00
2019-04-30T01:44:59.232Z,0.00
2019-04-30T01:46:01.978Z,0.00
2019-04-30T01:47:00.208Z,0.00
2019-04-30T01:48:08.413Z,0.00
2019-04-30T01:49:00.185Z,0.00
2019-04-30T01:50:01.042Z,0.00
2019-04-30T01:51:01.107Z,0.00
2019-04-30T01:52:00.575Z,0.00
2019-04-30T01:52:59.225Z,0.00
2019-04-30T01:53:59.491Z,0.00
2019-04-30T01:54:59.122Z,0.00
2019-04-30T01:55:59.286Z,0.00
2019-04-30T01:56:59.484Z,0.00
2019-04-30T01:57:59.240Z,0.00
2019-04-30T01:58:59.542Z,0.00
2019-04-30T02:00:00.673Z,0.00
2019-04-30T02:00:59.454Z,0.00
2019-04-30T02:01:59.046Z,0.00
2019-04-30T02:02:59.289Z,0.00
2019-04-30T02:03:59.031Z,0.00
2019-04-30T02:04:59.235Z,0.00
2019-04-30T02:05:59.622Z,0.00
2019-04-30T02:06:59.242Z,0.00
2019-04-30T02:07:58.979Z,0.00
2019-04-30T02:08:59.409Z,0.00
2019-04-30T02:09:58.983Z,0.00
2019-04-30T02:10:59.386Z,0.00
2019-04-30T02:11:59.932Z,0.00
2019-04-30T02:12:59.161Z,0.00
2019-04-30T02:13:59.169Z,0.00
2019-04-30T02:14:59.731Z,0.00
2019-04-30T02:15:59.371Z,0.00
2019-04-30T02:16:59.405Z,0.00
2019-04-30T02:17:58.972Z,0.00
2019-04-30T02:18:59.649Z,0.00
2019-04-30T02:19:59.247Z,0.00
2019-04-30T02:20:59.545Z,0.00
2019-04-30T02:21:58.824Z,0.00
2019-04-30T02:22:58.888Z,0.00
2019-04-30T02:23:58.970Z,0.00
2019-04-30T02:24:58.794Z,0.00
2019-04-30T02:25:58.995Z,0.00
2019-04-30T02:26:59.449Z,0.00
2019-04-30T02:27:59.165Z,0.00
2019-04-30T02:28:59.429Z,0.00
2019-04-30T02:29:59.473Z,0.00
2019-04-30T02:31:00.212Z,0.00
2019-04-30T02:32:00.520Z,0.00
2019-04-30T02:33:00.450Z,0.00
2019-04-30T02:34:00.481Z,0.00
2019-04-30T02:34:59.832Z,0.00
2019-04-30T02:36:03.253Z,0.00
2019-04-30T02:36:59.220Z,0.00
2019-04-30T02:38:00.232Z,0.00
2019-04-30T02:39:02.262Z,0.00
2019-04-30T02:40:00.839Z,0.00
2019-04-30T02:40:59.540Z,0.00
2019-04-30T02:41:59.974Z,0.00
2019-04-30T02:43:01.602Z,0.00
2019-04-30T02:43:59.855Z,0.00
2019-04-30T02:45:00.032Z,0.00
2019-04-30T02:46:00.046Z,0.00
2019-04-30T02:47:00.277Z,0.00
2019-04-30T02:47:59.414Z,0.00
2019-04-30T02:48:59.771Z,0.00
2019-04-30T02:50:14.055Z,0.00
2019-04-30T02:51:00.264Z,0.00
2019-04-30T02:51:59.536Z,0.00
2019-04-30T02:53:00.199Z,0.00
2019-04-30T02:54:00.528Z,0.00
2019-04-30T02:54:59.318Z,0.00
2019-04-30T02:55:59.548Z,0.00
2019-04-30T02:56:59.612Z,0.00
2019-04-30T02:57:59.519Z,0.00
2019-04-30T02:59:03.168Z,0.00
2019-04-30T03:00:00.101Z,0.00
2019-04-30T03:01:00.246Z,0.00
2019-04-30T03:01:59.756Z,0.00
2019-04-30T03:03:00.167Z,0.00
2019-04-30T03:03:59.836Z,0.00
2019-04-30T03:05:00.257Z,0.00
2019-04-30T03:05:59.586Z,0.00
2019-04-30T03:06:59.876Z,0.00
2019-04-30T03:08:00.427Z,0.00
2019-04-30T03:09:01.032Z,0.00
2019-04-30T03:09:59.760Z,0.00
2019-04-30T03:11:00.113Z,0.00
2019-04-30T03:12:00.191Z,0.00
2019-04-30T03:13:00.042Z,0.00
2019-04-30T03:13:59.228Z,0.00
2019-04-30T03:15:00.394Z,0.00
2019-04-30T03:15:59.329Z,0.00
2019-04-30T03:17:00.261Z,0.00
2019-04-30T03:18:00.576Z,0.00
2019-04-30T03:18:59.528Z,0.00
2019-04-30T03:20:00.275Z,0.00
2019-04-30T03:20:59.856Z,0.00
2019-04-30T03:22:00.242Z,0.00
2019-04-30T03:23:02.037Z,0.00
2019-04-30T03:24:00.581Z,0.00
2019-04-30T03:24:59.855Z,0.00
2019-04-30T03:25:59.753Z,4.00
2019-04-30T03:26:59.422Z,0.00
2019-04-30T03:28:00.312Z,0.00
2019-04-30T03:29:00.706Z,0.00
2019-04-30T03:30:00.079Z,0.00
2019-04-30T03:31:03.630Z,4.00
2019-04-30T03:32:02.614Z,0.00
2019-04-30T03:33:02.048Z,0.00
2019-04-30T03:34:01.986Z,4.00
2019-04-30T03:35:02.652Z,4.00
2019-04-30T03:36:02.390Z,0.00
2019-04-30T03:37:01.691Z,4.00
2019-04-30T03:37:59.219Z,4.00
2019-04-30T03:38:59.999Z,0.00
2019-04-30T03:40:00.506Z,4.00
2019-04-30T03:41:00.226Z,0.00
2019-04-30T03:41:59.666Z,4.00
2019-04-30T03:42:59.753Z,4.00
2019-04-30T03:44:16.484Z,4.00
2019-04-30T03:44:59.312Z,4.00
2019-04-30T03:45:59.339Z,4.00
2019-04-30T03:46:59.362Z,4.00
2019-04-30T03:48:00.281Z,4.00
2019-04-30T03:49:00.202Z,4.00
2019-04-30T03:50:00.029Z,4.00
2019-04-30T03:51:00.862Z,8.00
2019-04-30T03:51:59.801Z,4.00
2019-04-30T03:53:00.248Z,8.00
2019-04-30T03:53:59.590Z,8.00
2019-04-30T03:55:02.427Z,8.00
2019-04-30T03:55:57.794Z,8.00
2019-04-30T03:57:00.374Z,8.00
2019-04-30T03:58:00.064Z,8.00
2019-04-30T03:59:00.149Z,12.00
2019-04-30T03:59:59.447Z,8.00
2019-04-30T04:01:00.412Z,12.00
2019-04-30T04:01:59.573Z,12.00
2019-04-30T04:02:59.896Z,12.00
2019-04-30T04:04:00.294Z,12.00
2019-04-30T04:05:00.904Z,12.00
2019-04-30T04:05:59.469Z,12.00
2019-04-30T04:06:59.988Z,12.00
2019-04-30T04:07:59.831Z,16.00
2019-04-30T04:09:00.048Z,16.00
2019-04-30T04:09:59.808Z,12.00
2019-04-30T04:11:00.314Z,16.00
2019-04-30T04:11:59.841Z,16.00
2019-04-30T04:12:59.729Z,16.00
2019-04-30T04:13:59.681Z,16.00
2019-04-30T04:15:00.740Z,16.00
2019-04-30T04:16:00.003Z,20.00
2019-04-30T04:16:59.919Z,16.00
2019-04-30T04:18:00.215Z,20.00
2019-04-30T04:18:59.448Z,20.00
2019-04-30T04:19:59.813Z,20.00
2019-04-30T04:21:11.169Z,24.00
2019-04-30T04:22:00.137Z,24.00
2019-04-30T04:22:59.671Z,24.00
2019-04-30T04:24:00.125Z,24.00
2019-04-30T04:25:00.009Z,24.00
2019-04-30T04:25:59.555Z,24.00
2019-04-30T04:26:59.667Z,24.00
2019-04-30T04:28:00.182Z,24.00
2019-04-30T04:28:59.403Z,28.00
2019-04-30T04:30:00.728Z,28.00
2019-04-30T04:30:59.949Z,28.00
2019-04-30T04:31:57.420Z,32.00
2019-04-30T04:32:59.678Z,36.00
2019-04-30T04:34:00.158Z,40.00
2019-04-30T04:34:59.934Z,48.00
2019-04-30T04:35:59.588Z,56.00
2019-04-30T04:36:59.881Z,68.00
2019-04-30T04:38:00.208Z,76.00
2019-04-30T04:38:59.928Z,80.00
2019-04-30T04:39:59.557Z,80.00
2019-04-30T04:41:02.642Z,104.00
2019-04-30T04:41:59.938Z,116.00
2019-04-30T04:43:00.060Z,80.00
2019-04-30T04:43:59.871Z,48.00
2019-04-30T04:44:59.587Z,36.00
2019-04-30T04:45:59.467Z,36.00
2019-04-30T04:47:00.015Z,36.00
2019-04-30T04:47:59.749Z,36.00
2019-04-30T04:48:59.409Z,36.00
2019-04-30T04:49:57.249Z,36.00
2019-04-30T04:50:59.886Z,36.00
2019-04-30T04:51:59.226Z,40.00
2019-04-30T04:52:59.285Z,40.00
2019-04-30T04:53:57.165Z,40.00
2019-04-30T04:54:57.148Z,40.00
2019-04-30T04:55:59.726Z,40.00
2019-04-30T04:57:11.067Z,40.00
2019-04-30T04:57:59.910Z,44.00
2019-04-30T04:58:57.106Z,44.00
2019-04-30T04:59:59.585Z,44.00
2019-04-30T05:00:59.263Z,44.00
2019-04-30T05:01:57.077Z,44.00
2019-04-30T05:02:59.256Z,44.00
2019-04-30T05:03:59.018Z,48.00
2019-04-30T05:04:57.041Z,48.00
2019-04-30T05:06:00.077Z,48.00
2019-04-30T05:07:00.105Z,48.00
2019-04-30T05:07:58.405Z,52.00
2019-04-30T05:08:57.006Z,52.00
2019-04-30T05:10:00.559Z,52.00
2019-04-30T05:10:56.979Z,52.00
2019-04-30T05:11:58.507Z,52.00
2019-04-30T05:12:56.950Z,52.00
2019-04-30T05:13:58.846Z,52.00
2019-04-30T05:14:56.931Z,52.00
2019-04-30T05:15:59.247Z,52.00
2019-04-30T05:16:58.622Z,56.00
2019-04-30T05:17:56.895Z,56.00
2019-04-30T05:18:58.642Z,56.00
2019-04-30T05:19:58.663Z,56.00
2019-04-30T05:20:58.868Z,60.00
2019-04-30T05:21:56.849Z,60.00
2019-04-30T05:22:58.516Z,60.00
2019-04-30T05:23:56.829Z,64.00
2019-04-30T05:24:58.664Z,60.00
2019-04-30T05:25:58.832Z,64.00
2019-04-30T05:26:58.620Z,64.00
2019-04-30T05:27:58.594Z,64.00
2019-04-30T05:28:56.774Z,64.00
2019-04-30T05:29:56.766Z,64.00
2019-04-30T05:30:56.753Z,64.00
2019-04-30T05:31:58.517Z,68.00
2019-04-30T05:32:58.495Z,64.00
2019-04-30T05:33:58.581Z,64.00
2019-04-30T05:34:58.618Z,64.00
2019-04-30T05:35:56.782Z,68.00
2019-04-30T05:36:58.472Z,72.00
2019-04-30T05:37:56.679Z,48.00
2019-04-30T05:38:58.575Z,44.00
2019-04-30T05:39:58.795Z,80.00
2019-04-30T05:40:56.645Z,116.00
2019-04-30T05:41:58.837Z,164.00
2019-04-30T05:42:56.620Z,212.00
2019-04-30T05:43:58.991Z,216.00
2019-04-30T05:44:56.620Z,312.00
2019-04-30T05:45:58.534Z,256.00
2019-04-30T05:46:56.578Z,304.00
2019-04-30T05:47:58.634Z,328.00
2019-04-30T05:48:56.576Z,348.00
2019-04-30T05:49:58.427Z,364.00
2019-04-30T05:50:56.538Z,368.00
2019-04-30T05:51:56.529Z,376.00
2019-04-30T05:52:56.513Z,376.00
2019-04-30T05:53:56.501Z,380.00
2019-04-30T05:54:59.818Z,384.00
2019-04-30T05:55:56.483Z,380.00
2019-04-30T05:56:56.470Z,376.00
2019-04-30T05:57:56.648Z,376.00
2019-04-30T05:58:56.451Z,372.00
2019-04-30T05:59:58.479Z,364.00
2019-04-30T06:00:56.428Z,364.00
2019-04-30T06:01:56.416Z,356.00
2019-04-30T06:02:56.412Z,352.00
2019-04-30T06:03:56.405Z,348.00
2019-04-30T06:04:56.381Z,344.00
2019-04-30T06:05:56.370Z,340.00
2019-04-30T06:06:56.360Z,340.00
2019-04-30T06:07:56.350Z,340.00
2019-04-30T06:09:04.668Z,336.00
2019-04-30T06:09:57.328Z,332.00
2019-04-30T06:10:56.317Z,332.00
2019-04-30T06:11:56.307Z,332.00
2019-04-30T06:12:56.295Z,332.00
2019-04-30T06:13:56.284Z,332.00
2019-04-30T06:14:56.271Z,328.00
2019-04-30T06:15:56.261Z,328.00
2019-04-30T06:16:56.251Z,328.00
2019-04-30T06:18:02.433Z,336.00
2019-04-30T06:18:58.526Z,336.00
2019-04-30T06:19:56.217Z,344.00
2019-04-30T06:20:56.206Z,348.00
2019-04-30T06:22:05.905Z,352.00
2019-04-30T06:22:57.194Z,360.00
2019-04-30T06:23:56.176Z,364.00
2019-04-30T06:24:56.164Z,368.00
2019-04-30T06:26:00.079Z,372.00
2019-04-30T06:26:58.922Z,380.00
2019-04-30T06:27:56.134Z,384.00
2019-04-30T06:28:56.120Z,392.00
2019-04-30T06:29:56.111Z,392.00
2019-04-30T06:30:56.119Z,392.00
2019-04-30T06:31:56.088Z,404.00
2019-04-30T06:32:56.083Z,408.00
2019-04-30T06:33:56.064Z,408.00
2019-04-30T06:34:56.067Z,412.00
2019-04-30T06:35:56.042Z,420.00
2019-04-30T06:36:57.080Z,424.00
2019-04-30T06:37:56.018Z,428.00
2019-04-30T06:38:56.010Z,432.00
2019-04-30T06:39:55.997Z,432.00
2019-04-30T06:40:55.987Z,432.00
2019-04-30T06:42:06.291Z,440.00
2019-04-30T06:43:00.413Z,444.00
2019-04-30T06:43:55.955Z,448.00
2019-04-30T06:44:55.947Z,448.00
2019-04-30T06:45:55.932Z,448.00
2019-04-30T06:46:55.922Z,448.00
2019-04-30T06:47:55.911Z,452.00
2019-04-30T06:48:55.900Z,460.00
2019-04-30T06:49:55.889Z,460.00
2019-04-30T06:50:55.879Z,464.00
2019-04-30T06:51:55.869Z,468.00
2019-04-30T06:52:58.769Z,472.00
2019-04-30T06:53:58.607Z,476.00
2019-04-30T06:54:55.836Z,476.00
2019-04-30T06:55:55.824Z,480.00
2019-04-30T06:56:55.815Z,480.00
2019-04-30T06:57:55.802Z,484.00
2019-04-30T06:58:55.790Z,484.00
2019-04-30T06:59:55.778Z,484.00
2019-04-30T07:00:55.774Z,488.00
2019-04-30T07:01:55.755Z,488.00
2019-04-30T07:02:55.750Z,488.00
2019-04-30T07:03:58.898Z,492.00
2019-04-30T07:04:55.725Z,492.00
2019-04-30T07:05:55.713Z,496.00
2019-04-30T07:06:55.706Z,504.00
2019-04-30T07:08:02.191Z,500.00
2019-04-30T07:08:57.852Z,508.00
2019-04-30T07:09:58.591Z,504.00
2019-04-30T07:11:00.433Z,508.00
2019-04-30T07:11:56.668Z,512.00
2019-04-30T07:12:55.642Z,512.00
2019-04-30T07:13:55.652Z,512.00
2019-04-30T07:14:55.614Z,516.00
2019-04-30T07:15:55.606Z,520.00
2019-04-30T07:16:55.595Z,520.00
2019-04-30T07:17:55.584Z,524.00
2019-04-30T07:18:55.576Z,516.00
2019-04-30T07:19:56.868Z,520.00
2019-04-30T07:20:55.552Z,520.00
2019-04-30T07:21:55.543Z,516.00
2019-04-30T07:23:00.773Z,520.00
2019-04-30T07:23:56.518Z,520.00
2019-04-30T07:24:55.512Z,520.00
2019-04-30T07:25:55.497Z,520.00
2019-04-30T07:27:01.050Z,516.00
2019-04-30T07:27:56.477Z,524.00
2019-04-30T07:28:55.649Z,520.00
2019-04-30T07:29:55.457Z,528.00
2019-04-30T07:31:08.631Z,524.00
2019-04-30T07:31:56.433Z,520.00
2019-04-30T07:32:55.424Z,520.00
2019-04-30T07:33:55.493Z,520.00
2019-04-30T07:34:55.404Z,520.00
2019-04-30T07:35:55.394Z,520.00
2019-04-30T07:37:10.932Z,524.00
2019-04-30T07:38:00.511Z,532.00
2019-04-30T07:38:57.030Z,536.00
2019-04-30T07:39:55.354Z,544.00
2019-04-30T07:40:55.348Z,548.00
2019-04-30T07:41:55.329Z,556.00
2019-04-30T07:42:55.319Z,568.00
2019-04-30T07:43:55.308Z,576.00
2019-04-30T07:44:55.330Z,564.00
2019-04-30T07:45:55.318Z,552.00
2019-04-30T07:46:55.276Z,560.00
2019-04-30T07:47:55.269Z,556.00
2019-04-30T07:48:55.257Z,556.00
2019-04-30T07:49:56.030Z,564.00
2019-04-30T07:50:55.249Z,560.00
2019-04-30T07:51:55.955Z,552.00
2019-04-30T07:53:04.907Z,544.00
2019-04-30T07:53:56.217Z,548.00
2019-04-30T07:54:55.196Z,544.00
2019-04-30T07:55:55.222Z,548.00
2019-04-30T07:56:55.227Z,528.00
2019-04-30T07:57:55.161Z,520.00
2019-04-30T07:58:55.150Z,516.00
2019-04-30T07:59:55.139Z,504.00
2019-04-30T08:02:04.049Z,480.00
2019-04-30T08:02:56.108Z,468.00
2019-04-30T08:03:55.107Z,456.00
2019-04-30T08:04:55.099Z,448.00
2019-04-30T08:05:55.118Z,444.00
2019-04-30T08:06:55.107Z,440.00
2019-04-30T08:07:55.117Z,436.00
2019-04-30T08:08:59.813Z,432.00
2019-04-30T08:09:36.829Z,488.00
2019-04-30T08:09:56.034Z,432.00
2019-04-30T08:10:55.023Z,428.00
2019-04-30T08:11:55.010Z,424.00
2019-04-30T08:12:55.123Z,424.00
2019-04-30T08:13:54.993Z,420.00
2019-04-30T08:14:54.983Z,416.00
2019-04-30T08:15:54.970Z,416.00
2019-04-30T08:16:54.958Z,416.00
2019-04-30T08:18:03.621Z,412.00
2019-04-30T08:18:55.936Z,416.00
2019-04-30T08:19:54.925Z,416.00
2019-04-30T08:20:54.915Z,408.00
2019-04-30T08:21:54.934Z,412.00
2019-04-30T08:22:54.901Z,412.00
2019-04-30T08:23:54.885Z,408.00
2019-04-30T08:24:54.892Z,412.00
2019-04-30T08:25:54.867Z,408.00
2019-04-30T08:26:54.857Z,404.00
2019-04-30T08:27:54.840Z,412.00
2019-04-30T08:28:54.830Z,408.00
2019-04-30T08:29:54.819Z,404.00
2019-04-30T08:30:54.810Z,404.00
2019-04-30T08:31:54.796Z,404.00
2019-04-30T08:32:54.794Z,404.00
2019-04-30T08:33:54.777Z,400.00
2019-04-30T08:34:54.778Z,404.00
2019-04-30T08:35:54.777Z,400.00
2019-04-30T08:36:54.916Z,400.00
2019-04-30T08:37:54.734Z,400.00
2019-04-30T08:38:54.724Z,396.00
2019-04-30T08:39:54.733Z,396.00
2019-04-30T08:40:58.149Z,396.00
2019-04-30T08:41:55.698Z,396.00
2019-04-30T08:42:54.678Z,396.00
2019-04-30T08:43:54.667Z,396.00
2019-04-30T08:44:54.662Z,396.00
2019-04-30T08:45:54.648Z,396.00
2019-04-30T08:46:54.643Z,392.00
2019-04-30T08:47:54.626Z,396.00
2019-04-30T08:48:54.641Z,392.00
2019-04-30T08:49:54.611Z,396.00
2019-04-30T08:50:54.698Z,396.00
2019-04-30T08:51:54.583Z,396.00
2019-04-30T08:52:54.628Z,396.00
2019-04-30T08:53:54.567Z,396.00
2019-04-30T08:54:54.551Z,396.00
2019-04-30T08:55:54.542Z,396.00
2019-04-30T08:56:54.540Z,396.00
2019-04-30T08:58:06.885Z,400.00
2019-04-30T08:58:55.509Z,400.00
2019-04-30T08:59:54.500Z,400.00
2019-04-30T09:00:54.490Z,400.00
2019-04-30T09:01:54.479Z,404.00
2019-04-30T09:02:54.474Z,400.00
2019-04-30T09:03:54.458Z,400.00
2019-04-30T09:04:54.445Z,396.00
2019-04-30T09:05:54.436Z,396.00
2019-04-30T09:06:54.426Z,400.00
2019-04-30T09:07:54.414Z,400.00
2019-04-30T09:08:54.405Z,400.00
2019-04-30T09:09:54.396Z,400.00
2019-04-30T09:10:54.390Z,396.00
2019-04-30T09:11:55.728Z,400.00
2019-04-30T09:12:54.360Z,400.00
2019-04-30T09:13:54.351Z,400.00
2019-04-30T09:14:54.345Z,400.00
2019-04-30T09:15:54.332Z,400.00
2019-04-30T09:16:54.323Z,404.00
2019-04-30T09:18:03.064Z,396.00
2019-04-30T09:18:55.303Z,396.00
2019-04-30T09:19:54.288Z,400.00
2019-04-30T09:20:54.278Z,392.00
2019-04-30T09:21:54.274Z,384.00
2019-04-30T09:22:54.263Z,380.00
2019-04-30T09:23:54.245Z,376.00
2019-04-30T09:24:54.236Z,360.00
2019-04-30T09:25:54.226Z,364.00
2019-04-30T09:26:54.216Z,364.00
2019-04-30T09:27:54.208Z,360.00
2019-04-30T09:28:54.195Z,360.00
2019-04-30T09:29:54.183Z,352.00
2019-04-30T09:30:54.171Z,356.00
2019-04-30T09:31:54.160Z,344.00
2019-04-30T09:32:54.151Z,348.00
2019-04-30T09:33:54.142Z,348.00
2019-04-30T09:34:54.129Z,340.00
2019-04-30T09:35:54.122Z,336.00
2019-04-30T09:36:54.110Z,332.00
2019-04-30T09:37:59.725Z,332.00
2019-04-30T09:38:55.094Z,328.00
2019-04-30T09:39:54.081Z,332.00
2019-04-30T09:40:54.080Z,324.00
2019-04-30T09:41:54.058Z,312.00
2019-04-30T09:42:54.043Z,304.00
2019-04-30T09:43:54.041Z,300.00
2019-04-30T09:44:57.019Z,296.00
2019-04-30T09:45:54.016Z,280.00
2019-04-30T09:46:54.008Z,292.00
2019-04-30T09:47:54.003Z,276.00
2019-04-30T09:48:54.001Z,276.00
2019-04-30T09:49:53.975Z,256.00
2019-04-30T09:50:54.318Z,264.00
2019-04-30T09:51:53.952Z,260.00
2019-04-30T09:52:53.946Z,252.00
2019-04-30T09:53:59.063Z,248.00
2019-04-30T09:54:54.922Z,244.00
2019-04-30T09:55:53.906Z,240.00
2019-04-30T09:56:53.899Z,236.00
2019-04-30T09:57:53.890Z,228.00
2019-04-30T09:58:53.875Z,244.00
2019-04-30T09:59:53.864Z,248.00
2019-04-30T10:00:53.853Z,248.00
2019-04-30T10:01:53.844Z,248.00
2019-04-30T10:02:53.982Z,248.00
2019-04-30T10:03:54.244Z,248.00
2019-04-30T10:04:54.127Z,260.00
2019-04-30T10:05:53.801Z,236.00
2019-04-30T10:06:53.790Z,236.00
2019-04-30T10:07:53.798Z,240.00
2019-04-30T10:08:53.807Z,240.00
2019-04-30T10:09:53.759Z,236.00
2019-04-30T10:10:53.748Z,232.00
2019-04-30T10:11:53.740Z,228.00
2019-04-30T10:12:53.726Z,224.00
2019-04-30T10:13:53.720Z,224.00
2019-04-30T10:14:53.721Z,224.00
2019-04-30T10:15:53.695Z,216.00
2019-04-30T10:16:53.685Z,212.00
2019-04-30T10:17:53.674Z,208.00
2019-04-30T10:18:53.664Z,208.00
2019-04-30T10:19:53.653Z,204.00
2019-04-30T10:20:53.643Z,204.00
2019-04-30T10:21:53.642Z,196.00
2019-04-30T10:22:53.622Z,188.00
2019-04-30T10:23:53.610Z,188.00
2019-04-30T10:24:53.599Z,184.00
2019-04-30T10:25:53.591Z,184.00
2019-04-30T10:26:53.719Z,180.00
2019-04-30T10:27:53.586Z,180.00
2019-04-30T10:28:53.568Z,176.00
2019-04-30T10:29:53.548Z,172.00
2019-04-30T10:30:53.536Z,168.00
2019-04-30T10:31:53.526Z,168.00
2019-04-30T10:32:53.514Z,164.00
2019-04-30T10:33:53.504Z,164.00
2019-04-30T10:34:53.494Z,164.00
2019-04-30T10:35:53.490Z,160.00
2019-04-30T10:36:53.473Z,156.00
2019-04-30T10:37:53.462Z,156.00
2019-04-30T10:38:53.452Z,156.00
2019-04-30T10:39:53.474Z,160.00
2019-04-30T10:40:53.447Z,152.00
2019-04-30T10:41:53.419Z,152.00
2019-04-30T10:42:53.409Z,152.00
2019-04-30T10:43:53.409Z,152.00
2019-04-30T10:44:53.389Z,152.00
2019-04-30T10:45:53.390Z,148.00
2019-04-30T10:46:53.368Z,148.00
2019-04-30T10:47:53.356Z,144.00
2019-04-30T10:48:53.347Z,144.00
2019-04-30T10:49:53.340Z,144.00
2019-04-30T10:50:53.324Z,140.00
2019-04-30T10:51:53.322Z,140.00
2019-04-30T10:52:53.302Z,140.00
2019-04-30T10:53:53.300Z,132.00
2019-04-30T10:54:53.280Z,132.00
2019-04-30T10:55:53.269Z,128.00
2019-04-30T10:56:53.261Z,128.00
2019-04-30T10:57:53.249Z,128.00
2019-04-30T10:58:53.294Z,128.00
2019-04-30T10:59:53.226Z,124.00
2019-04-30T11:00:53.216Z,124.00
2019-04-30T11:01:53.205Z,120.00
2019-04-30T11:02:53.194Z,120.00
2019-04-30T11:03:53.183Z,120.00
2019-04-30T11:04:53.175Z,116.00
2019-04-30T11:05:53.161Z,116.00
2019-04-30T11:06:53.216Z,112.00
2019-04-30T11:07:53.144Z,104.00
2019-04-30T11:08:53.132Z,104.00
2019-04-30T11:09:53.121Z,108.00
2019-04-30T11:10:53.111Z,100.00
2019-04-30T11:11:53.100Z,104.00
2019-04-30T11:12:53.089Z,100.00
2019-04-30T11:13:53.079Z,96.00
2019-04-30T11:14:53.070Z,96.00
2019-04-30T11:15:53.059Z,96.00
2019-04-30T11:16:53.310Z,96.00
2019-04-30T11:17:53.228Z,96.00
2019-04-30T11:18:53.091Z,96.00
2019-04-30T11:19:53.159Z,96.00
2019-04-30T11:20:53.052Z,96.00
2019-04-30T11:21:53.218Z,96.00
2019-04-30T11:22:54.771Z,100.00
2019-04-30T11:23:53.155Z,96.00
2019-04-30T11:25:01.633Z,96.00
2019-04-30T11:25:54.665Z,96.00
2019-04-30T11:26:53.499Z,96.00
2019-04-30T11:27:53.443Z,96.00
2019-04-30T11:28:53.112Z,92.00
2019-04-30T11:29:53.153Z,92.00
2019-04-30T11:30:53.129Z,96.00
2019-04-30T11:31:53.108Z,92.00
2019-04-30T11:32:53.061Z,96.00
2019-04-30T11:33:52.866Z,92.00
2019-04-30T11:34:52.855Z,96.00
2019-04-30T11:36:02.323Z,92.00
2019-04-30T11:36:53.833Z,92.00
2019-04-30T11:37:52.824Z,92.00
2019-04-30T11:38:52.816Z,92.00
2019-04-30T11:39:52.801Z,92.00
2019-04-30T11:40:52.792Z,92.00
2019-04-30T11:41:52.782Z,92.00
2019-04-30T11:42:52.773Z,92.00
2019-04-30T11:43:52.757Z,92.00
2019-04-30T11:44:52.757Z,88.00
2019-04-30T11:45:52.739Z,88.00
2019-04-30T11:46:52.727Z,88.00
2019-04-30T11:47:53.731Z,88.00
2019-04-30T11:48:52.703Z,88.00
2019-04-30T11:49:52.693Z,88.00
2019-04-30T11:50:52.685Z,88.00
2019-04-30T11:51:52.672Z,88.00
2019-04-30T11:52:52.662Z,88.00
2019-04-30T11:53:52.658Z,88.00
2019-04-30T11:54:54.543Z,84.00
2019-04-30T11:55:52.629Z,88.00
2019-04-30T11:56:52.627Z,84.00
2019-04-30T11:57:52.608Z,84.00
2019-04-30T11:58:52.593Z,84.00
2019-04-30T11:59:52.611Z,84.00
2019-04-30T12:00:52.574Z,84.00
2019-04-30T12:01:52.564Z,84.00
2019-04-30T12:02:53.085Z,84.00
2019-04-30T12:03:52.540Z,80.00
2019-04-30T12:04:52.533Z,80.00
2019-04-30T12:05:52.519Z,76.00
2019-04-30T12:06:52.511Z,80.00
2019-04-30T12:07:52.498Z,80.00
2019-04-30T12:08:52.492Z,76.00
2019-04-30T12:09:52.475Z,76.00
2019-04-30T12:10:52.469Z,72.00
2019-04-30T12:11:52.454Z,76.00
2019-04-30T12:12:52.443Z,76.00
2019-04-30T12:13:52.434Z,76.00
2019-04-30T12:14:52.423Z,76.00
2019-04-30T12:15:52.410Z,76.00
2019-04-30T12:16:52.401Z,72.00
2019-04-30T12:17:52.388Z,76.00
2019-04-30T12:18:52.381Z,76.00
2019-04-30T12:19:52.378Z,72.00
2019-04-30T12:20:52.355Z,72.00
2019-04-30T12:21:52.347Z,68.00
2019-04-30T12:22:52.331Z,72.00
2019-04-30T12:23:52.333Z,72.00
2019-04-30T12:25:02.327Z,72.00
2019-04-30T12:25:53.303Z,72.00
2019-04-30T12:26:52.295Z,72.00
2019-04-30T12:27:52.277Z,68.00
2019-04-30T12:28:52.267Z,68.00
2019-04-30T12:29:52.257Z,72.00
2019-04-30T12:30:52.257Z,68.00
2019-04-30T12:31:52.234Z,68.00
2019-04-30T12:32:52.222Z,68.00
2019-04-30T12:33:52.212Z,68.00
2019-04-30T12:34:52.204Z,68.00
2019-04-30T12:35:52.209Z,64.00
2019-04-30T12:36:52.179Z,64.00
2019-04-30T12:37:52.545Z,64.00
2019-04-30T12:38:52.157Z,64.00
2019-04-30T12:39:52.147Z,68.00
2019-04-30T12:40:52.136Z,64.00
2019-04-30T12:41:52.128Z,64.00
2019-04-30T12:42:52.120Z,64.00
2019-04-30T12:43:52.104Z,64.00
2019-04-30T12:44:52.118Z,64.00
2019-04-30T12:46:02.238Z,64.00
2019-04-30T12:46:53.074Z,64.00
2019-04-30T12:47:52.072Z,60.00
2019-04-30T12:48:52.053Z,64.00